Time;durP1;ratioP1;P1;durP2;ratioP2;P2;SDS_P1;SDS_P2;PMS_P1;PMS_P2;Temp;Humidity;BMP_temperature;BMP_pressure;BME280_temperature;BME280_humidity;BME280_pressure;Samples;Min_cycle;Max_cycle;Signal;HPM_P1;HPM_P2
2022/03/21 00:00:37;;;;;;;10.60;5.10;;;;;;;2.89;53.39;102509.23;105600;1271;60926;-74
2022/03/21 00:03:26;;;;;;;6.80;4.30;;;;;;;2.87;53.24;102510.02;105308;1274;60646;-73
2022/03/21 00:05:56;;;;;;;13.00;5.10;;;;;;;2.84;53.47;102505.46;105496;1271;74152;-74
2022/03/21 00:08:46;;;;;;;9.90;5.10;;;;;;;2.82;53.44;102510.79;105419;1271;71540;-73
2022/03/21 00:11:13;;;;;;;6.40;4.30;;;;;;;2.79;53.41;102507.96;105408;1271;73878;-73
2022/03/21 00:13:51;;;;;;;;;;;;;;;;;;;;;
2022/03/21 00:16:23;;;;;;;9.70;4.70;;;;;;;2.78;53.83;102501.07;105425;1271;60740;-74
2022/03/21 00:19:00;;;;;;;7.20;4.60;;;;;;;2.78;53.80;102498.77;105606;1271;74946;-74
2022/03/21 00:21:34;;;;;;;9.70;4.30;;;;;;;2.79;53.76;102505.73;105462;1271;71532;-73
2022/03/21 00:24:20;;;;;;;7.90;4.60;;;;;;;2.79;53.89;102508.29;105399;1271;73125;-73
2022/03/21 00:26:47;;;;;;;8.70;5.00;;;;;;;2.79;53.93;102508.14;105484;1271;60378;-73
2022/03/21 00:29:17;;;;;;;8.50;4.40;;;;;;;2.78;54.02;102502.25;105199;1271;60564;-73
2022/03/21 00:31:54;;;;;;;11.20;5.80;;;;;;;2.78;54.25;102500.66;105478;1271;75607;-74
2022/03/21 00:34:54;;;;;;;11.00;5.10;;;;;;;2.78;54.14;102502.79;105566;1271;72614;-73
2022/03/21 00:37:23;;;;;;;6.90;4.30;;;;;;;2.77;54.16;102501.61;108471;1272;72638;-73
2022/03/21 00:40:33;;;;;;;8.60;4.50;;;;;;;2.77;53.87;102504.09;105552;1271;61561;-73
2022/03/21 00:43:27;;;;;;;8.30;4.20;;;;;;;2.77;54.10;102503.36;105253;1271;61987;-73
2022/03/21 00:46:30;;;;;;;;;;;;;;;;;;;;;
2022/03/21 00:49:03;;;;;;;9.40;4.80;;;;;;;2.75;54.28;102507.85;105391;1271;71239;-74
2022/03/21 00:51:45;;;;;;;9.90;5.10;;;;;;;2.73;54.34;102506.38;105518;1271;72988;-73
2022/03/21 00:54:33;;;;;;;10.60;5.10;;;;;;;2.70;54.45;102510.52;105583;1271;60777;-73
2022/03/21 00:57:36;;;;;;;11.30;5.70;;;;;;;2.69;54.57;102502.91;105352;1274;61521;-71
2022/03/21 01:00:25;;;;;;;7.40;4.30;;;;;;;2.67;54.71;102507.72;105465;1271;74183;-72
2022/03/21 01:03:01;;;;;;;8.90;4.90;;;;;;;2.65;54.60;102507.85;105439;1271;71447;-72
2022/03/21 01:05:58;;;;;;;9.90;5.10;;;;;;;2.62;54.67;102505.70;105410;1271;71673;-72
2022/03/21 01:08:28;;;;;;;7.10;4.10;;;;;;;2.59;54.94;102506.05;105437;1270;60613;-72
2022/03/21 01:11:09;;;;;;;;;;;;;;;;;;;;;
2022/03/21 01:13:51;;;;;;;;;;;;;;;;;;;;;
2022/03/21 01:16:47;;;;;;;9.20;5.10;;;;;;;2.48;55.21;102515.87;105486;1272;72348;-72
2022/03/21 01:19:54;;;;;;;7.40;4.10;;;;;;;2.42;55.34;102513.71;105594;1271;73785;-73
2022/03/21 01:23:04;;;;;;;6.90;4.50;;;;;;;2.36;55.47;102511.94;105532;1271;60851;-73
2022/03/21 01:25:33;;;;;;;6.70;4.40;;;;;;;2.31;55.49;102513.23;105408;1271;60621;-73
2022/03/21 01:28:03;;;;;;;6.80;5.10;;;;;;;2.28;55.63;102513.91;105384;1271;75445;-73
2022/03/21 01:30:39;;;;;;;9.60;5.90;;;;;;;2.25;55.99;102510.34;105773;1271;71238;-72
2022/03/21 01:33:36;;;;;;;;;;;;;;;;;;;;;
2022/03/21 01:36:39;;;;;;;;;;;;;;;;;;;;;
2022/03/21 01:39:08;;;;;;;8.50;4.90;;;;;;;2.14;56.15;102509.89;105537;1271;60554;-75
2022/03/21 01:41:38;;;;;;;9.30;5.40;;;;;;;2.08;56.37;102511.73;105424;1271;75276;-73
2022/03/21 01:44:07;;;;;;;8.70;4.60;;;;;;;2.01;56.74;102505.59;105533;1271;71661;-73
2022/03/21 01:46:49;;;;;;;13.80;5.80;;;;;;;1.96;56.90;102502.37;105384;1271;72316;-72
2022/03/21 01:49:25;;;;;;;9.10;5.40;;;;;;;1.90;56.91;102506.47;105368;1274;61583;-73
2022/03/21 01:52:02;;;;;;;9.60;5.40;;;;;;;1.86;57.14;102504.61;105482;1271;60584;-73
2022/03/21 01:58:00;;;;;;;5.90;3.10;;;;;;;1.74;57.36;102503.78;105346;1274;71556;-73
2022/03/21 02:00:27;;;;;;;7.80;4.60;;;;;;;1.70;57.70;102511.30;105265;1271;74062;-74
2022/03/21 02:03:04;;;;;;;6.70;4.10;;;;;;;1.64;57.85;102505.28;105502;1271;61370;-73
2022/03/21 02:05:33;;;;;;;10.20;5.00;;;;;;;1.61;58.17;102505.96;105599;1271;60568;-73
2022/03/21 02:08:09;;;;;;;10.70;6.00;;;;;;;1.57;58.72;102500.38;105491;1271;75392;-74
2022/03/21 02:10:36;;;;;;;9.70;5.10;;;;;;;1.54;58.70;102500.71;105514;1271;72601;-72
2022/03/21 02:13:06;;;;;;;8.00;4.90;;;;;;;1.51;58.84;102498.91;105535;1271;72233;-73
2022/03/21 02:15:36;;;;;;;10.50;6.00;;;;;;;1.49;58.99;102493.26;105327;1271;60974;-73
2022/03/21 02:18:04;;;;;;;11.50;5.60;;;;;;;1.49;59.54;102492.39;105450;1271;60498;-74
2022/03/21 02:20:55;;;;;;;8.50;5.10;;;;;;;1.49;59.66;102494.31;105575;1271;75623;-73
2022/03/21 02:23:46;;;;;;;9.50;5.30;;;;;;;1.47;59.49;102498.08;105252;1274;72283;-73
2022/03/21 02:26:14;;;;;;;8.90;4.30;;;;;;;1.42;59.58;102493.58;105491;1271;73932;-73
2022/03/21 02:28:42;;;;;;;10.00;4.90;;;;;;;1.40;59.85;102496.62;105281;1271;60533;-72
2022/03/21 02:31:32;;;;;;;9.80;4.60;;;;;;;1.39;59.88;102495.95;105378;1271;61576;-73
2022/03/21 02:34:14;;;;;;;11.80;6.20;;;;;;;1.40;59.98;102495.23;105478;1271;75029;-72
2022/03/21 02:36:42;;;;;;;9.50;4.80;;;;;;;1.41;59.92;102497.30;105384;1271;72603;-74
2022/03/21 02:39:23;;;;;;;;;;;;;;;;;;;;;
2022/03/21 02:41:51;;;;;;;8.90;4.70;;;;;;;1.42;59.90;102491.84;105590;1271;60690;-73
2022/03/21 02:44:21;;;;;;;9.10;4.70;;;;;;;1.41;60.10;102498.14;105418;1271;60561;-73
2022/03/21 02:46:48;;;;;;;11.00;5.40;;;;;;;1.41;60.06;102495.36;105527;1271;75267;-73
2022/03/21 02:49:15;;;;;;;13.10;6.80;;;;;;;1.40;60.40;102491.75;105434;1271;70290;-74
2022/03/21 02:51:43;;;;;;;9.70;5.30;;;;;;;1.40;60.19;102488.94;105367;1271;73926;-73
2022/03/21 02:54:11;;;;;;;11.10;5.00;;;;;;;1.41;60.45;102495.02;105652;1271;60892;-72
2022/03/21 02:56:47;;;;;;;10.50;5.60;;;;;;;1.40;60.44;102490.34;105296;1274;61366;-73
2022/03/21 02:59:18;;;;;;;14.80;6.10;;;;;;;1.40;60.60;102492.11;105481;1271;74120;-72
2022/03/21 03:01:45;;;;;;;9.20;5.00;;;;;;;1.38;60.50;102492.70;105560;1271;72594;-72
2022/03/21 03:04:12;;;;;;;10.40;5.10;;;;;;;1.36;60.65;102492.44;105461;1271;73519;-73
2022/03/21 03:07:09;;;;;;;9.60;5.40;;;;;;;1.35;60.67;102494.79;105318;1271;61066;-73
2022/03/21 03:09:36;;;;;;;9.80;5.10;;;;;;;1.32;60.81;102495.77;105528;1271;60880;-73
2022/03/21 03:12:23;;;;;;;9.60;5.50;;;;;;;1.31;61.13;102493.20;105472;1271;74102;-73
2022/03/21 03:14:49;;;;;;;12.00;5.60;;;;;;;1.30;61.04;102492.59;105318;1274;72344;-73
2022/03/21 03:17:17;;;;;;;7.90;4.30;;;;;;;1.28;61.21;102495.98;105498;1274;72982;-73
2022/03/21 03:19:43;;;;;;;11.60;5.10;;;;;;;1.25;61.43;102493.50;106294;1274;60576;-73
2022/03/21 03:22:18;;;;;;;10.60;4.70;;;;;;;1.22;61.56;102495.19;105880;1274;60790;-73
2022/03/21 03:24:49;;;;;;;8.20;4.70;;;;;;;1.19;61.65;102501.92;105844;1274;75160;-73
2022/03/21 03:27:18;;;;;;;10.90;6.10;;;;;;;1.17;61.75;102502.20;105726;1274;71449;-73
2022/03/21 03:29:58;;;;;;;;;;;;;;;;;;;;;
2022/03/21 03:32:28;;;;;;;11.10;5.40;;;;;;;1.13;61.91;102496.13;105325;1274;60467;-73
2022/03/21 03:34:56;;;;;;;11.00;6.20;;;;;;;1.11;61.79;102497.42;105410;1274;60829;-73
2022/03/21 03:37:25;;;;;;;10.50;5.50;;;;;;;1.09;61.83;102497.85;105706;1274;73557;-73
2022/03/21 03:39:52;;;;;;;9.40;5.10;;;;;;;1.08;62.03;102503.16;105206;1277;71374;-71
2022/03/21 03:42:26;;;;;;;13.00;6.00;;;;;;;1.07;61.95;102505.29;105349;1274;73060;-74
2022/03/21 03:44:56;;;;;;;9.30;4.90;;;;;;;1.06;61.96;102512.27;105216;1273;60948;-77
2022/03/21 03:47:26;;;;;;;9.30;5.70;;;;;;;1.06;61.95;102514.73;105149;1274;61695;-73
2022/03/21 03:50:15;;;;;;;10.80;5.70;;;;;;;1.05;62.05;102516.67;105342;1274;74562;-74
2022/03/21 03:52:45;;;;;;;11.30;6.00;;;;;;;1.05;62.01;102514.08;105566;1274;72650;-73
2022/03/21 03:55:17;;;;;;;13.50;6.50;;;;;;;1.03;62.09;102511.19;105619;1272;72674;-73
2022/03/21 03:57:50;;;;;;;10.40;5.50;;;;;;;1.01;62.14;102512.00;105358;1274;60596;-72
2022/03/21 04:00:17;;;;;;;9.00;5.80;;;;;;;0.98;62.36;102513.88;105481;1273;61625;-72
2022/03/21 04:05:40;;;;;;;9.20;5.20;;;;;;;0.92;62.55;102519.16;105342;1274;70390;-73
2022/03/21 04:08:09;;;;;;;12.50;5.30;;;;;;;0.88;62.71;102519.86;105344;1271;73933;-72
2022/03/21 04:10:38;;;;;;;9.40;5.50;;;;;;;0.83;62.89;102521.48;105282;1273;61112;-73
2022/03/21 04:13:38;;;;;;;12.60;6.00;;;;;;;0.77;63.35;102523.48;105468;1271;61545;-73
2022/03/21 04:16:27;;;;;;;11.90;6.70;;;;;;;0.70;63.94;102526.91;105459;1271;74255;-71
2022/03/21 04:19:02;;;;;;;8.70;4.60;;;;;;;0.67;63.97;102524.28;105317;1273;72177;-72
2022/03/21 04:21:31;;;;;;;12.80;6.00;;;;;;;0.64;63.79;102529.62;105316;1274;72216;-72
2022/03/21 04:24:07;;;;;;;8.80;5.00;;;;;;;0.61;63.91;102525.20;105254;1271;61058;-73
2022/03/21 04:26:43;;;;;;;10.70;6.40;;;;;;;0.60;64.11;102524.23;105287;1271;61370;-73
2022/03/21 04:29:09;;;;;;;10.90;5.60;;;;;;;0.58;63.88;102524.48;105145;1274;76003;-73
2022/03/21 04:31:38;;;;;;;10.70;6.10;;;;;;;0.56;63.90;102527.20;105671;1271;71418;-72
2022/03/21 04:34:05;;;;;;;10.70;6.20;;;;;;;0.54;64.06;102526.02;105283;1271;72945;-73
2022/03/21 04:36:46;;;;;;;10.90;6.40;;;;;;;0.52;63.66;102527.84;105252;1274;60548;-73
2022/03/21 04:39:13;;;;;;;9.80;5.20;;;;;;;0.49;63.97;102529.73;105455;1271;61142;-74
2022/03/21 04:42:21;;;;;;;10.70;6.50;;;;;;;0.47;64.16;102534.52;105319;1271;74269;-73
2022/03/21 04:44:58;;;;;;;11.60;6.10;;;;;;;0.42;64.31;102535.39;105113;1274;70434;-74
2022/03/21 04:47:25;;;;;;;14.60;6.10;;;;;;;0.39;64.38;102536.58;105447;1271;73993;-72
2022/03/21 04:49:57;;;;;;;12.30;5.70;;;;;;;0.35;64.53;102538.64;105403;1274;60513;-72
2022/03/21 04:52:24;;;;;;;12.40;6.70;;;;;;;0.32;64.48;102541.20;105224;1274;60009;-73
2022/03/21 04:54:51;;;;;;;10.30;5.60;;;;;;;0.28;64.50;102543.83;105278;1274;74038;-74
2022/03/21 04:57:23;;;;;;;15.00;7.00;;;;;;;0.24;64.74;102549.71;105443;1271;70321;-74
2022/03/21 05:00:37;;;;;;;12.90;6.70;;;;;;;0.21;64.69;102552.64;105277;1271;73043;-74
2022/03/21 05:03:19;;;;;;;11.50;5.90;;;;;;;0.15;64.71;102556.19;105307;1271;60437;-73
2022/03/21 05:05:46;;;;;;;11.10;6.50;;;;;;;0.11;64.71;102557.38;105411;1271;60300;-73
2022/03/21 05:08:13;;;;;;;10.50;6.30;;;;;;;0.07;65.00;102557.72;105407;1274;75168;-74
2022/03/21 05:11:00;;;;;;;12.80;6.60;;;;;;;0.03;65.09;102559.43;105393;1272;71433;-72
2022/03/21 05:13:36;;;;;;;12.30;6.50;;;;;;;-0.01;65.65;102558.02;105215;1272;74471;-72
2022/03/21 05:16:29;;;;;;;10.60;5.80;;;;;;;-0.04;65.76;102561.96;105458;1272;60879;-73
2022/03/21 05:18:58;;;;;;;9.80;6.40;;;;;;;-0.08;65.69;102558.29;105323;1274;60388;-74
2022/03/21 05:21:25;;;;;;;10.30;6.40;;;;;;;-0.11;65.75;102557.71;105405;1271;74591;-73
2022/03/21 05:32:15;;;;;;;10.70;5.60;;;;;;;-0.08;66.68;102563.15;105420;1271;61666;-73
2022/03/21 05:37:49;;;;;;;12.50;6.30;;;;;;;-0.03;66.64;102570.97;105303;1271;71849;-72
2022/03/21 05:40:35;;;;;;;12.00;6.30;;;;;;;-0.02;66.96;102569.00;105404;1274;73152;-71
2022/03/21 05:43:03;;;;;;;11.60;5.60;;;;;;;-0.01;66.80;102569.15;105474;1271;60500;-72
2022/03/21 05:45:29;;;;;;;9.00;5.50;;;;;;;-0.01;66.75;102573.67;105354;1273;61803;-71
2022/03/21 05:50:42;;;;;;;10.50;6.50;;;;;;;0.03;66.77;102571.80;105385;1271;71325;-71
2022/03/21 05:53:12;;;;;;;13.40;6.50;;;;;;;0.05;66.99;102572.05;105387;1271;72943;-72
2022/03/21 05:55:39;;;;;;;12.10;6.40;;;;;;;0.06;67.23;102572.00;105717;1271;61334;-73
2022/03/21 05:58:06;;;;;;;11.10;6.90;;;;;;;0.09;67.27;102569.30;105344;1274;60362;-72
2022/03/21 06:00:34;;;;;;;10.70;5.70;;;;;;;0.13;67.17;102571.23;105437;1271;74070;-71
2022/03/21 06:03:02;;;;;;;12.50;6.90;;;;;;;0.17;67.40;102564.42;105430;1274;71103;-71
2022/03/21 06:05:40;;;;;;;10.10;5.90;;;;;;;0.23;67.53;102567.34;105415;1271;72704;-72
2022/03/21 06:08:08;;;;;;;13.20;7.40;;;;;;;0.31;67.35;102567.55;105401;1274;61750;-72
2022/03/21 06:10:38;;;;;;;13.50;6.60;;;;;;;0.38;67.27;102575.08;105391;1271;62400;-72
2022/03/21 06:13:15;;;;;;;11.60;6.10;;;;;;;0.46;67.21;102575.48;105485;1274;74165;-72
2022/03/21 06:15:45;;;;;;;10.60;5.30;;;;;;;0.53;67.20;102580.58;105457;1271;70085;-71
2022/03/21 06:18:14;;;;;;;12.80;7.20;;;;;;;0.59;67.01;102579.27;105452;1271;73865;-71
2022/03/21 06:20:42;;;;;;;12.20;6.00;;;;;;;0.67;67.20;102580.67;105427;1272;61218;-72
2022/03/21 06:23:09;;;;;;;14.50;7.40;;;;;;;0.75;67.14;102583.46;105424;1274;60722;-72
2022/03/21 06:25:37;;;;;;;10.60;6.00;;;;;;;0.83;66.89;102586.98;105311;1271;74088;-72
2022/03/21 06:28:06;;;;;;;12.10;6.30;;;;;;;0.92;66.72;102589.92;105310;1271;72413;-71
2022/03/21 06:30:33;;;;;;;14.20;6.80;;;;;;;1.02;66.54;102596.98;105273;1274;72921;-71
2022/03/21 06:33:10;;;;;;;12.10;5.90;;;;;;;1.11;66.32;102595.52;105274;1271;60708;-74
2022/03/21 06:35:37;;;;;;;11.90;6.60;;;;;;;1.22;66.25;102600.79;105356;1271;61465;-68
2022/03/21 06:38:04;;;;;;;12.20;7.20;;;;;;;1.34;66.23;102603.26;105293;1274;73833;-67
2022/03/21 06:40:31;;;;;;;12.00;7.10;;;;;;;1.43;66.00;102603.52;104912;1273;72759;-69
2022/03/21 06:42:57;;;;;;;14.30;6.70;;;;;;;1.54;66.12;102608.45;105306;1274;72909;-69
2022/03/21 06:45:26;;;;;;;12.80;7.40;;;;;;;1.65;65.79;102609.01;105102;1272;60558;-68
2022/03/21 06:47:57;;;;;;;19.00;8.40;;;;;;;1.76;65.57;102609.88;105300;1274;60465;-71
2022/03/21 06:50:24;;;;;;;13.00;7.10;;;;;;;1.88;65.52;102608.98;105018;1274;75140;-71
2022/03/21 06:52:55;;;;;;;11.10;6.20;;;;;;;2.01;65.13;102612.76;105141;1274;71422;-69
2022/03/21 06:55:31;;;;;;;18.50;8.50;;;;;;;2.14;64.58;102613.38;105222;1271;73985;-69
2022/03/21 06:57:58;;;;;;;13.40;8.00;;;;;;;2.26;64.12;102613.30;105206;1274;61237;-69
2022/03/21 07:00:24;;;;;;;14.90;7.50;;;;;;;2.37;63.97;102617.30;105285;1272;60915;-71
2022/03/21 07:02:54;;;;;;;13.00;7.40;;;;;;;2.48;63.68;102619.76;105210;1273;61322;-70
2022/03/21 07:05:21;;;;;;;13.90;7.50;;;;;;;2.60;63.60;102622.13;105161;1274;71325;-69
2022/03/21 07:07:56;;;;;;;12.20;6.70;;;;;;;2.71;63.21;102621.59;105195;1272;72749;-71
2022/03/21 07:10:27;;;;;;;10.50;6.30;;;;;;;2.84;63.03;102626.73;105129;1274;61056;-70
2022/03/21 07:12:53;;;;;;;14.90;8.10;;;;;;;2.94;62.50;102629.37;105164;1271;61973;-71
2022/03/21 07:15:20;;;;;;;13.70;6.90;;;;;;;3.06;62.39;102630.16;105318;1271;74191;-71
2022/03/21 07:17:56;;;;;;;13.20;7.20;;;;;;;3.17;62.15;102627.66;105234;1271;72732;-71
2022/03/21 07:20:25;;;;;;;12.10;6.20;;;;;;;3.30;61.77;102628.77;105329;1274;72877;-70
2022/03/21 07:22:57;;;;;;;12.00;7.30;;;;;;;3.42;61.55;102626.72;105225;1271;60474;-71
2022/03/21 07:25:24;;;;;;;14.60;8.20;;;;;;;3.53;61.16;102626.11;105537;1274;60606;-70
2022/03/21 07:27:51;;;;;;;13.40;8.40;;;;;;;3.65;61.24;102627.74;105940;1271;73121;-72
2022/03/21 07:30:19;;;;;;;16.00;7.80;;;;;;;3.78;60.73;102626.41;105447;1271;72823;-69
2022/03/21 07:32:46;;;;;;;13.20;8.00;;;;;;;3.89;60.15;102628.95;105331;1274;74112;-69
2022/03/21 07:35:14;;;;;;;16.50;8.20;;;;;;;3.99;59.70;102625.75;105496;1271;61035;-67
2022/03/21 07:37:53;;;;;;;14.50;8.40;;;;;;;4.08;59.44;102627.73;105440;1272;60756;-71
2022/03/21 07:40:20;;;;;;;11.70;7.40;;;;;;;4.20;59.46;102630.36;105255;1272;75142;-69
2022/03/21 07:42:48;;;;;;;13.90;7.10;;;;;;;4.32;58.87;102630.59;105265;1271;71350;-69
2022/03/21 07:48:02;;;;;;;17.50;9.50;;;;;;;4.55;58.50;102637.38;105224;1274;60498;-70
2022/03/21 07:50:29;;;;;;;14.60;8.90;;;;;;;4.64;57.78;102631.60;105311;1274;60568;-70
2022/03/21 07:52:57;;;;;;;11.00;7.30;;;;;;;4.74;57.83;102633.27;105173;1271;76326;-70
2022/03/21 07:55:30;;;;;;;12.60;7.10;;;;;;;4.86;57.51;102631.17;108402;1273;70503;-72
2022/03/21 07:57:59;;;;;;;12.80;7.70;;;;;;;4.97;57.24;102627.92;107812;1271;73843;-71
2022/03/21 08:00:30;;;;;;;15.50;8.40;;;;;;;5.08;57.04;102631.97;107796;1274;59821;-70
2022/03/21 08:02:59;;;;;;;12.80;8.00;;;;;;;5.22;57.06;102635.86;105505;1271;60452;-70
2022/03/21 08:05:28;;;;;;;13.10;8.20;;;;;;;5.38;56.67;102636.13;106617;1272;73886;-69
2022/03/21 08:07:56;;;;;;;13.00;7.00;;;;;;;5.53;56.30;102638.06;107468;1271;72487;-72
2022/03/21 08:10:24;;;;;;;11.00;6.50;;;;;;;5.65;55.56;102637.98;104767;1272;627126;-70
2022/03/21 08:12:50;;;;;;;14.20;8.40;;;;;;;5.75;54.51;102643.00;105327;1274;60481;-71
2022/03/21 08:15:17;;;;;;;12.00;8.00;;;;;;;5.86;54.48;102643.17;105353;1271;60469;-71
2022/03/21 08:17:59;;;;;;;11.90;7.30;;;;;;;6.00;54.52;102645.19;105373;1274;75111;-71
2022/03/21 08:20:33;;;;;;;14.00;9.10;;;;;;;6.11;54.30;102643.02;106215;1271;72846;-71
2022/03/21 08:23:08;;;;;;;13.90;8.20;;;;;;;6.26;54.01;102645.11;105305;1271;73224;-71
2022/03/21 08:25:36;;;;;;;14.50;8.40;;;;;;;6.40;52.92;102643.13;107511;1271;59863;-71
2022/03/21 08:28:26;;;;;;;13.80;8.80;;;;;;;6.52;52.37;102644.83;105248;1271;60680;-71
2022/03/21 08:30:56;;;;;;;16.00;9.10;;;;;;;6.65;52.04;102644.33;106167;1273;74445;-70
2022/03/21 08:33:23;;;;;;;14.00;8.70;;;;;;;6.73;50.97;102642.38;105483;1274;70972;-70
2022/03/21 08:35:49;;;;;;;13.50;8.60;;;;;;;6.81;50.92;102643.06;105315;1271;74250;-70
2022/03/21 08:38:19;;;;;;;15.10;8.50;;;;;;;6.92;50.49;102645.34;105269;1271;60886;-70
2022/03/21 08:40:46;;;;;;;15.40;9.00;;;;;;;7.01;50.37;102645.30;105228;1271;60489;-71
2022/03/21 08:43:13;;;;;;;12.50;8.50;;;;;;;7.10;50.08;102644.99;105260;1271;74490;-68
2022/03/21 08:45:40;;;;;;;13.70;8.40;;;;;;;7.16;49.67;102642.28;105322;1274;72738;-69
2022/03/21 08:48:07;;;;;;;15.60;9.20;;;;;;;7.24;49.83;102639.65;105373;1271;72982;-70
2022/03/21 08:50:34;;;;;;;12.00;7.90;;;;;;;7.32;49.76;102641.40;105244;1274;60732;-70
2022/03/21 08:53:03;;;;;;;15.20;9.40;;;;;;;7.40;49.86;102643.01;105247;1274;61699;-70
2022/03/21 08:55:30;;;;;;;14.30;9.10;;;;;;;7.47;49.39;102639.65;105381;1271;75165;-70
2022/03/21 08:57:57;;;;;;;15.40;9.90;;;;;;;7.58;49.60;102638.36;105342;1274;71409;-70
2022/03/21 09:00:26;;;;;;;15.80;8.90;;;;;;;7.71;48.95;102635.31;105258;1271;60561;-70
2022/03/21 09:02:54;;;;;;;13.20;9.10;;;;;;;7.87;48.79;102634.02;105331;1271;61654;-69
2022/03/21 09:05:24;;;;;;;17.50;9.80;;;;;;;7.99;48.09;102632.27;105319;1273;60570;-70
2022/03/21 09:07:51;;;;;;;16.70;9.90;;;;;;;8.13;48.39;102631.11;105308;1274;75123;-70
2022/03/21 09:10:18;;;;;;;15.20;8.60;;;;;;;8.28;48.30;102633.53;105267;1274;60555;-71
2022/03/21 09:12:45;;;;;;;13.70;8.60;;;;;;;8.44;48.20;102632.75;105457;1271;72824;-70
2022/03/21 09:15:12;;;;;;;14.10;8.60;;;;;;;8.60;47.22;102634.92;105220;1271;60559;-69
2022/03/21 09:17:39;;;;;;;15.10;8.50;;;;;;;8.78;47.35;102638.15;105387;1274;60546;-70
2022/03/21 09:20:14;;;;;;;16.10;8.70;;;;;;;8.95;47.25;102633.86;105239;1271;75062;-70
2022/03/21 09:22:41;;;;;;;14.40;8.20;;;;;;;9.06;46.67;102634.61;108528;1272;72444;-70
2022/03/21 09:25:10;;;;;;;13.00;8.40;;;;;;;9.18;45.94;102628.41;108397;1274;74469;-71
2022/03/21 09:27:41;;;;;;;15.90;10.50;;;;;;;9.26;45.40;102629.17;108435;1274;61707;-72
2022/03/21 09:30:09;;;;;;;14.80;8.30;;;;;;;9.36;45.81;102625.62;105429;1271;60386;-69
2022/03/21 09:32:35;;;;;;;14.70;8.90;;;;;;;9.45;45.18;102620.71;105328;1271;75126;-69
2022/03/21 09:35:05;;;;;;;15.20;8.80;;;;;;;9.57;45.12;102624.11;105349;1273;72594;-73
2022/03/21 09:37:32;;;;;;;16.30;9.00;;;;;;;9.70;45.19;102624.23;105334;1271;71977;-72
2022/03/21 09:40:00;;;;;;;13.90;8.80;;;;;;;9.84;44.50;102626.81;105210;1272;61229;-71
2022/03/21 09:42:28;;;;;;;15.20;8.90;;;;;;;9.96;44.53;102629.56;105485;1271;60462;-72
2022/03/21 09:44:55;;;;;;;13.30;9.10;;;;;;;10.07;43.97;102629.34;105286;1274;74214;-72
2022/03/21 09:50:12;;;;;;;17.60;9.80;;;;;;;10.34;43.13;102629.33;105322;1273;73985;-73
2022/03/21 09:52:42;;;;;;;13.00;8.80;;;;;;;10.39;43.15;102630.63;105572;1271;61663;-73
2022/03/21 09:55:09;;;;;;;13.60;8.40;;;;;;;10.49;43.14;102628.79;105388;1271;62029;-72
2022/03/21 09:57:37;;;;;;;11.50;7.70;;;;;;;10.58;42.93;102625.05;105263;1273;74207;-72
2022/03/21 10:00:05;;;;;;;15.60;10.30;;;;;;;10.68;42.81;102624.73;105423;1274;72589;-72
2022/03/21 10:02:34;;;;;;;13.50;9.20;;;;;;;10.79;42.63;102627.77;105436;1271;75208;-72
2022/03/21 10:05:01;;;;;;;15.10;9.10;;;;;;;10.91;41.93;102623.13;105408;1271;61473;-72
2022/03/21 10:07:28;;;;;;;15.00;8.70;;;;;;;11.00;41.93;102626.61;105244;1271;60520;-72
2022/03/21 10:10:09;;;;;;;12.70;7.90;;;;;;;11.12;41.92;102629.90;105192;1272;75140;-71
2022/03/21 10:12:39;;;;;;;15.50;9.80;;;;;;;11.21;41.33;102626.48;105611;1274;73236;-73
2022/03/21 10:15:08;;;;;;;12.60;8.90;;;;;;;11.26;41.11;102629.20;105365;1274;73318;-73
2022/03/21 10:17:35;;;;;;;15.40;9.60;;;;;;;11.34;40.96;102627.98;106014;1274;61733;-72
2022/03/21 10:20:08;;;;;;;12.90;8.50;;;;;;;11.43;40.73;102628.27;105286;1274;60453;-73
2022/03/21 10:22:37;;;;;;;14.30;9.80;;;;;;;11.53;41.19;102624.83;106749;1271;74147;-72
2022/03/21 10:25:07;;;;;;;14.20;9.50;;;;;;;11.62;40.10;102619.36;105274;1273;72434;-72
2022/03/21 10:27:39;;;;;;;14.50;9.00;;;;;;;11.65;39.87;102621.39;105687;1271;74231;-72
2022/03/21 10:30:08;;;;;;;25.60;12.20;;;;;;;11.73;40.37;102617.17;107672;1271;60971;-73
2022/03/21 10:33:01;;;;;;;12.20;7.70;;;;;;;11.81;40.28;102611.62;105437;1274;60548;-77
2022/03/21 10:35:30;;;;;;;15.10;9.30;;;;;;;11.90;39.56;102608.63;105374;1272;73907;-75
2022/03/21 10:38:02;;;;;;;18.40;9.30;;;;;;;11.98;40.13;102610.88;105193;1274;71335;-76
2022/03/21 10:40:45;;;;;;;12.00;8.20;;;;;;;12.16;40.43;102602.92;105433;1271;72963;-72
2022/03/21 10:43:14;;;;;;;17.20;9.40;;;;;;;12.34;39.79;102603.41;105100;1274;61837;-72
2022/03/21 10:45:51;;;;;;;14.20;10.70;;;;;;;12.46;39.31;102603.58;105226;1271;60490;-69
2022/03/21 10:48:29;;;;;;;13.70;8.50;;;;;;;12.60;39.27;102598.73;105362;1270;74630;-69
2022/03/21 10:50:57;;;;;;;13.30;8.50;;;;;;;12.72;38.95;102601.00;105125;1274;72403;-69
2022/03/21 10:53:33;;;;;;;14.20;8.90;;;;;;;12.80;38.37;102602.42;105445;1271;72938;-71
2022/03/21 10:56:02;;;;;;;13.20;10.00;;;;;;;12.87;38.45;102605.12;105293;1274;60569;-70
2022/03/21 10:58:43;;;;;;;18.60;10.00;;;;;;;13.05;39.03;102598.05;105299;1272;60446;-70
2022/03/21 11:01:24;;;;;;;20.00;10.30;;;;;;;13.25;38.38;102600.64;105240;1271;74894;-71
2022/03/21 11:03:56;;;;;;;14.50;10.30;;;;;;;13.38;38.51;102596.97;105546;1273;71077;-70
2022/03/21 11:06:24;;;;;;;13.90;9.30;;;;;;;13.56;38.30;102591.35;105318;1271;72815;-70
2022/03/21 11:08:52;;;;;;;13.90;9.70;;;;;;;13.66;36.89;102584.45;105572;1274;60707;-72
2022/03/21 11:11:20;;;;;;;13.40;9.60;;;;;;;13.78;37.45;102585.09;105361;1274;60919;-74
2022/03/21 11:13:48;;;;;;;14.60;10.40;;;;;;;13.87;36.35;102584.23;105438;1271;74506;-75
2022/03/21 11:16:19;;;;;;;14.10;10.10;;;;;;;13.95;36.69;102584.55;105286;1274;71311;-74
2022/03/21 11:18:47;;;;;;;14.50;9.20;;;;;;;14.03;36.49;102581.25;105438;1271;72973;-73
2022/03/21 11:21:19;;;;;;;12.90;8.30;;;;;;;14.14;36.96;102583.48;105221;1271;61432;-72
2022/03/21 11:23:47;;;;;;;14.90;9.30;;;;;;;14.24;36.71;102582.38;105118;1274;60372;-72
2022/03/21 11:26:39;;;;;;;17.80;10.30;;;;;;;14.25;36.74;102575.98;105505;1271;73972;-72
2022/03/21 11:29:06;;;;;;;14.30;10.50;;;;;;;14.25;36.08;102575.45;105454;1271;71519;-73
2022/03/21 11:32:07;;;;;;;13.00;9.20;;;;;;;14.23;35.91;102576.42;105285;1271;73968;-74
2022/03/21 11:34:48;;;;;;;15.60;9.50;;;;;;;14.35;36.04;102574.36;105153;1273;61600;-72
2022/03/21 11:37:26;;;;;;;15.20;9.00;;;;;;;14.55;35.94;102571.13;105123;1274;60432;-71
2022/03/21 11:40:30;;;;;;;16.60;10.30;;;;;;;14.72;35.59;102571.34;105170;1273;75389;-72
2022/03/21 11:43:16;;;;;;;12.70;7.80;;;;;;;14.97;35.00;102570.94;105319;1274;71451;-71
2022/03/21 11:45:54;;;;;;;12.90;9.00;;;;;;;15.07;34.67;102571.46;105606;1271;73332;-71
2022/03/21 11:48:22;;;;;;;14.30;8.80;;;;;;;15.18;33.86;102567.14;105134;1274;60413;-71
2022/03/21 11:51:10;;;;;;;11.70;8.40;;;;;;;15.29;33.67;102571.17;105268;1271;60541;-70
2022/03/21 11:53:45;;;;;;;11.70;8.30;;;;;;;15.39;33.46;102560.31;105318;1271;74129;-71
2022/03/21 11:56:36;;;;;;;14.90;10.00;;;;;;;15.55;33.89;102559.73;106822;1272;72944;-74
2022/03/21 11:59:03;;;;;;;10.70;7.70;;;;;;;15.93;33.25;102553.98;107913;1272;74029;-72
2022/03/21 12:01:30;;;;;;;17.20;10.00;;;;;;;16.25;32.39;102548.85;108462;1271;60580;-73
2022/03/21 12:04:24;;;;;;;14.00;10.20;;;;;;;16.67;32.34;102544.80;106805;1271;61239;-73
2022/03/21 12:07:20;;;;;;;14.10;9.90;;;;;;;17.19;30.85;102545.14;105209;1271;75217;-73
2022/03/21 12:09:49;;;;;;;17.00;10.90;;;;;;;17.62;29.73;102540.91;105317;1271;71317;-71
2022/03/21 12:12:19;;;;;;;12.90;9.90;;;;;;;18.03;28.66;102540.16;105116;1273;73973;-74
2022/03/21 12:14:47;;;;;;;18.60;10.70;;;;;;;18.39;28.69;102537.55;105037;1274;62288;-72
2022/03/21 12:17:14;;;;;;;13.60;8.40;;;;;;;18.73;28.52;102532.06;105782;1271;60446;-71
2022/03/21 12:20:01;;;;;;;11.90;10.00;;;;;;;19.05;27.79;102532.90;105340;1274;62179;-72
2022/03/21 12:22:49;;;;;;;13.10;10.20;;;;;;;19.42;27.36;102537.67;105341;1272;72359;-71